Airfield :
LOGIN :

Register | Disclaimer

   EN    FR    IT 

 










Legend :    VFR   Marginal VFR   IFR   Intensive IFR   Very Intensive IFR
Visi :
Ceiling :
>= 8 km
>= 3000ft
5 to 8 km
1000 to 3000 ft
1500m to 5 km
500 to 1000 ft
800 to 1500m
200 to 500 ft
< 800m
< 200 ft
Symbols :   Thunderstorms  Fog  Heavy snow  Heavy precipitations  Wind > 20 kt
SIGMETs :     Misc.  Thunderstorms  Icing  Turbulence  Mountain Waves  Volcanic Ashes






- Airport Elevation : 388 ft
- IATA code : QYR


LFQB - Troyes Barberey

CURRENT METAR :
  • 231600Z AUTO 30004KT 230V320 9999 ///TCU 16/12 Q1017

EXPIRED METARs :
  • 231530Z AUTO 27007KT 9999 FEW022/// SCT033/// BKN041/// ///CB 15/12 Q1017
  • 231500Z AUTO 26012KT 9999 -DZ SCT018/// SCT025/// BKN043/// //////CB 16/11 Q1017
  • 231430Z AUTO 23007KT 9999 -RA FEW036/// SCT076/// BKN110/// ///CB 17/13 Q1017
  • 231400Z AUTO 23003KT 200V260 9999 ///CB 18/11 Q1016
  • 231330Z AUTO VRB02KT 9999 ///TCU 19/11 Q1016
  • 231300Z AUTO VRB02KT 9999 ///TCU 18/11 Q1017
  • 231230Z AUTO 00000KT 9999 ///CB 16/12 Q1017
  • 231200Z AUTO 27006KT 9999 -RA FEW020/// SCT046/// BKN052/// ///CB 16/12 Q1017
  • 231130Z AUTO VRB03KT 9999 FEW030/// SCT086/// ///CB 16/12 Q1017
  • 231100Z AUTO 33005KT 290V360 9999 FEW016/// SCT042/// BKN070/// ///CB 15/11 Q1017

TAF N/A



MET'MAP, your aeronautical weather chart ! - Copyright ORBIFLY December 2007 - Disclaimer

ORBIFLY MET'MAP TEAM :

Programming & Development : Alexandra Zaïnal
Original concept : Baudouin d'Aumeries
Technical & hardware support : Manuel Goepfert
Assistance : Marc-Olivier Méhu




SOURCES & CREDITS :

   NOAA